Salt Flat, TX (79847)

2:53 AM MDT on July 05, 2015 (GMT -0600)
APRSWXNET | | Change Station
CLOSE
Current Station
Personal Weather Station
Location: Salt Flat, TX
Elevation: 3694 ft
Nearby Weather Stations

Elev 3694 ft 31.73 °N, 104.93 °W | Updated 50 minutes ago

Clear
Clear
76 °F
Feels Like 78 °F
N
0
Wind Variable Wind from East
Gusts 2.0 mph

Today
High -- | Low -- °F
--% Chance of Precip.
Yesterday
High -- | Low -- °F
Precip. -- in
6:00 AM 8:09 PM
Waning Gibbous, 86% visible
Pressure 29.90 in
Visibility 9.0 miles
Clouds Few 5000 ft
Heat Index 78 °F
Dew Point 64 °F
Humidity 66%
Rainfall in
Snow Depth Not available.
UV 0 out of 12
Pollen 3.10 out of 12
Air Quality Not available.
Flu Activity Not available.
METAR KGDP 050751Z AUTO 04011KT 9SM FEW050 21/16 A3016 RMK AO2 SLP123 T02060156

More Conditions Fewer Conditions

Pressure 29.90 in
Visibility 9.0 miles
Clouds Few 5000 ft
Heat Index 78 °F
Dew Point 64 °F
Humidity 66%
Rainfall in
Snow Depth Not available.
UV 0 out of 12
Pollen 3.10 out of 12
Air Quality Not available.
Flu Activity Not available.
METAR KGDP 050751Z AUTO 04011KT 9SM FEW050 21/16 A3016 RMK AO2 SLP123 T02060156

More Conditions Fewer Conditions

10-Day Weather Forecast

×

Almanac

Astronomy

Jul. 05, 2015 Rise Set
Actual Time
Civil Twilight
Nautical Twilight
Astronomical Twilight
Moon
Length of Visible Light
Length of Day
Tomorrow will be .
, % of the Moon is Illuminated

Today's Extremes

State Highs State Lows

Community

WunderPhotos

Upload Photos

1,835,217 photos uploaded!

WunderBlogs® & News

Nearby

Air Quality

  Air Quality AQ Index Pollutant
Not available.

Snow Depth

Station Depth Elevation

Earthquake Activity

City Distance Mag. Time & Date
Minimum magnitude displayed is 2.5.

Coastal Water Temperatures

Place Temperature

Stations

Nearby Weather Stations

Station Location Temp. Windchill Dew Point Humidity Wind Precip. Elev Updated Type